Maran Poseidon — SVAV3 — position and weather

sailwx.info

Track history (hours):
 
Tides and Currents Weather Stations Pressure Air Temp Water Temp Dewpoint Dewpoint Depression Visibility Wind Speed Wind Dir Waves Ship Positions

Maran Poseidon

Last reported at 2014-Oct-01 05:33 UTC. Time now 2014-Oct-01 06:12 UTC.
Position N 32°50' W 120°17'.

Length 274 m; draft 10.7 m.

Type: Tanker. MMSI: 240959000.

Date/timePositionNaut miles runAvg speedWind from/ knotsBaromVisibWave heightAir tempDewpointWater temp
2014-Oct-01 05:33N 32°50' W 120°17'1313.1
2014-Oct-01 04:33N 32°39' W 120°08'2612.6
2014-Oct-01 02:29N 32°19' W 119°48'2412.6
2014-Oct-01 00:33N 31°60' W 119°30'1813.0
2014-Sep-30 23:11N 31°46' W 119°17'813.0
2014-Sep-30 22:32N 31°40' W 119°11'1313.2
2014-Sep-30 21:33N 31°30' W 119°01'1413.3
2014-Sep-30 20:32N 31°19' W 118°51'1313.5
2014-Sep-30 19:33N 31°09' W 118°41'4 3.5
2014-Sep-30 18:33N 31°07' W 118°37'3 2.4
2014-Sep-30 17:25N 31°10' W 118°39'1 1.6
2014-Sep-30 16:33N 31°11' W 118°40'2 2.0
2014-Sep-30 15:33N 31°12' W 118°42'2 2.0
2014-Sep-30 14:33N 31°13' W 118°44'4 1.8
2014-Sep-30 12:33N 31°15' W 118°47'4 2.1
2014-Sep-30 10:33N 31°17' W 118°51'2 2.1
2014-Sep-30 09:29N 31°18' W 118°54'2 2.1
2014-Sep-30 08:33N 31°20' W 118°55'2 2.1
2014-Sep-30 07:32N 31°21' W 118°57'2 2.1
2014-Sep-30 06:31N 31°22' W 118°59'2 1.8
2014-Sep-30 05:33N 31°24' W 119°01'2 2.0
2014-Sep-30 04:33N 31°25' W 119°02'2 2.0
2014-Sep-30 03:33N 31°27' W 119°04'2 1.9
2014-Sep-30 02:33N 31°28' W 119°05'2 1.5
2014-Sep-30 01:32N 31°29' W 119°06'2 2.2
2014-Sep-30 00:33N 31°31' W 119°08'3 2.6
2014-Sep-29 23:33N 31°32' W 119°10'5 4.5
2014-Sep-29 22:33N 31°36' W 119°14'5 5.5
2014-Sep-29 21:33N 31°40' W 119°18'2 1.3
2014-Sep-29 20:17N 31°41' W 119°20'6 4.7
2014-Sep-29 19:07N 31°41' W 119°13'2 2.6
2014-Sep-29 18:10N 31°43' W 119°14'1 2.1
2014-Sep-29 17:29N 31°44' W 119°15'3 3.6
2014-Sep-29 16:33N 31°46' W 119°19'3 3.1
2014-Sep-29 15:33N 31°48' W 119°22'8 7.2
2014-Sep-29 14:27N 31°55' W 119°26'6414.6
2014-Sep-29 10:04N 31°60' W 120°41'  
2014-Sep-26 01:09N 48°22' W 125°12'914.1
2014-Sep-26 00:33N 48°29' W 125°04'1313.0
2014-Sep-25 23:34N 48°31' W 124°45'1514.6
2014-Sep-25 22:33N 48°25' W 124°25'1515.2
2014-Sep-25 21:33N 48°20' W 124°03'1616.2
2014-Sep-25 20:33N 48°16' W 123°40'1313.3
2014-Sep-25 19:33N 48°09' W 123°22'1312.7
2014-Sep-25 18:33N 48°17' W 123°07'1616.2
2014-Sep-25 17:33N 48°26' W 122°47'1514.6
2014-Sep-25 16:33N 48°40' W 122°44'11 2.6
2014-Sep-25 12:13N 48°52' W 122°46'0 0.0
2014-Sep-25 09:07N 48°52' W 122°46'0 0.0
2014-Sep-25 08:31N 48°52' W 122°46'0 0.0
2014-Sep-25 06:31N 48°52' W 122°46'0 0.0
2014-Sep-25 00:04N 48°52' W 122°46'0 0.0
2014-Sep-24 21:04N 48°52' W 122°46'0 0.0
2014-Sep-24 12:26N 48°52' W 122°46'2 1.9
2014-Sep-24 11:34N 48°50' W 122°46'1111.2
2014-Sep-24 10:34N 48°39' W 122°41'6 5.6
2014-Sep-24 09:33N 48°36' W 122°34'0 0.1
2014-Sep-24 08:31N 48°36' W 122°34'0 0.0
2014-Sep-24 07:31N 48°36' W 122°34'0 0.1
2014-Sep-24 06:31N 48°36' W 122°34'0 0.0
2014-Sep-24 05:31N 48°36' W 122°34'0 0.0
2014-Sep-24 04:31N 48°36' W 122°34'0 0.0
2014-Sep-24 03:31N 48°36' W 122°34'0 0.1
2014-Sep-24 02:19N 48°36' W 122°34'0 0.0
2014-Sep-24 01:31N 48°36' W 122°34'0 0.0
2014-Sep-24 00:28N 48°36' W 122°34'0 0.0
2014-Sep-23 23:31N 48°36' W 122°34'0 0.0
2014-Sep-23 22:25N 48°36' W 122°34'0 0.1
2014-Sep-23 21:25N 48°36' W 122°34'0 0.1
2014-Sep-23 20:28N 48°36' W 122°34'0 0.1
2014-Sep-23 19:31N 48°36' W 122°34'0 0.1
2014-Sep-23 18:25N 48°36' W 122°34'0 0.1
2014-Sep-23 17:31N 48°36' W 122°34'0 0.0
2014-Sep-23 16:31N 48°36' W 122°34'0 0.0
2014-Sep-23 15:31N 48°36' W 122°34'0 0.1
2014-Sep-23 14:31N 48°36' W 122°34'0 0.1
2014-Sep-23 13:25N 48°36' W 122°34'0 0.1
2014-Sep-23 12:31N 48°36' W 122°34'0 0.0
2014-Sep-23 11:31N 48°36' W 122°34'0 0.0
2014-Sep-23 10:31N 48°36' W 122°34'0 0.0
2014-Sep-23 09:28N 48°36' W 122°34'0 0.1
2014-Sep-23 08:31N 48°36' W 122°34'0 0.2
2014-Sep-23 07:31N 48°36' W 122°34'0 0.2
2014-Sep-23 06:31N 48°36' W 122°34'0 0.0
2014-Sep-23 05:31N 48°36' W 122°34'0 0.0
2014-Sep-23 04:31N 48°36' W 122°34'0 0.2
2014-Sep-23 03:28N 48°36' W 122°34'0 0.2
2014-Sep-23 02:25N 48°36' W 122°34'0 0.1
2014-Sep-23 01:31N 48°36' W 122°34'0 0.0
2014-Sep-23 00:31N 48°36' W 122°34'0 0.0
2014-Sep-22 23:31N 48°36' W 122°34'0 0.0
2014-Sep-22 22:31N 48°36' W 122°34'0 0.0
2014-Sep-22 21:31N 48°36' W 122°34'0 0.0
2014-Sep-22 20:31N 48°36' W 122°34'0 0.1
2014-Sep-22 19:31N 48°36' W 122°34'0 0.1
2014-Sep-22 18:13N 48°36' W 122°34'0 0.3
2014-Sep-22 17:28N 48°36' W 122°34'0 0.2
2014-Sep-22 16:31N 48°36' W 122°34'0 0.1
2014-Sep-22 15:31N 48°36' W 122°34'0 0.0
2014-Sep-22 14:31N 48°36' W 122°34'0 0.0
2014-Sep-22 13:25N 48°36' W 122°34'0 0.0
2014-Sep-22 12:31N 48°36' W 122°34'0 0.0
2014-Sep-22 11:31N 48°36' W 122°34'0 0.0
2014-Sep-22 10:28N 48°36' W 122°34'0 0.0
2014-Sep-22 09:28N 48°36' W 122°34'0 0.0
2014-Sep-22 08:31N 48°36' W 122°34'0 0.0
2014-Sep-22 07:28N 48°36' W 122°34'0 0.0
2014-Sep-22 06:31N 48°36' W 122°34'0 0.1
2014-Sep-22 05:31N 48°36' W 122°34'0 0.0
2014-Sep-22 04:31N 48°36' W 122°34'0 0.0
2014-Sep-22 03:28N 48°36' W 122°34'0 0.1
2014-Sep-22 02:31N 48°36' W 122°34'0 0.2
2014-Sep-22 01:28N 48°36' W 122°34'0 0.1
2014-Sep-22 00:19N 48°36' W 122°34'0 0.1
2014-Sep-21 23:31N 48°36' W 122°34'0 0.0
2014-Sep-21 22:25N 48°36' W 122°34'0 0.0
2014-Sep-21 21:31N 48°36' W 122°34'0 0.1
2014-Sep-21 20:25N 48°36' W 122°34'0 0.1
2014-Sep-21 19:31N 48°36' W 122°34'0 0.1
2014-Sep-21 18:31N 48°36' W 122°34'0 0.1
2014-Sep-21 17:31N 48°36' W 122°34'0 0.0
2014-Sep-21 16:31N 48°36' W 122°34'0 0.0
2014-Sep-21 15:31N 48°36' W 122°34'0 0.0
2014-Sep-21 14:31N 48°36' W 122°34'0 0.0
2014-Sep-21 13:31N 48°36' W 122°34'0 0.0
2014-Sep-21 12:31N 48°36' W 122°34'0 0.0
2014-Sep-21 11:31N 48°36' W 122°34'0 0.1
2014-Sep-21 10:31N 48°36' W 122°34'0 0.1
2014-Sep-21 09:31N 48°36' W 122°34'0 0.0
2014-Sep-21 08:31N 48°36' W 122°34'0 0.1
2014-Sep-21 07:31N 48°36' W 122°34'0 0.0
2014-Sep-21 06:31N 48°36' W 122°34'  
Track history (hours):
 
Tides and Currents Weather Stations Pressure Air Temp Water Temp Dewpoint Dewpoint Depression Visibility Wind Speed Wind Dir Waves Ship Positions

Maran Poseidon

Last reported at 2014-Oct-01 05:33 UTC. Time now 2014-Oct-01 06:12 UTC.
Position N 32°50' W 120°17'.

Length 274 m; draft 10.7 m.

Type: Tanker. MMSI: 240959000.

Date/timePositionNaut miles runAvg speedWind from/ knotsBaromVisibWave heightAir tempDewpointWater temp
2014-Oct-01 05:33N 32°50' W 120°17'1313.1
2014-Oct-01 04:33N 32°39' W 120°08'2612.6
2014-Oct-01 02:29N 32°19' W 119°48'2412.6
2014-Oct-01 00:33N 31°60' W 119°30'1813.0
2014-Sep-30 23:11N 31°46' W 119°17'813.0
2014-Sep-30 22:32N 31°40' W 119°11'1313.2
2014-Sep-30 21:33N 31°30' W 119°01'1413.3
2014-Sep-30 20:32N 31°19' W 118°51'1313.5
2014-Sep-30 19:33N 31°09' W 118°41'4 3.5
2014-Sep-30 18:33N 31°07' W 118°37'3 2.4
2014-Sep-30 17:25N 31°10' W 118°39'1 1.6
2014-Sep-30 16:33N 31°11' W 118°40'2 2.0
2014-Sep-30 15:33N 31°12' W 118°42'2 2.0
2014-Sep-30 14:33N 31°13' W 118°44'4 1.8
2014-Sep-30 12:33N 31°15' W 118°47'4 2.1
2014-Sep-30 10:33N 31°17' W 118°51'2 2.1
2014-Sep-30 09:29N 31°18' W 118°54'2 2.1
2014-Sep-30 08:33N 31°20' W 118°55'2 2.1
2014-Sep-30 07:32N 31°21' W 118°57'2 2.1
2014-Sep-30 06:31N 31°22' W 118°59'2 1.8
2014-Sep-30 05:33N 31°24' W 119°01'2 2.0
2014-Sep-30 04:33N 31°25' W 119°02'2 2.0
2014-Sep-30 03:33N 31°27' W 119°04'2 1.9
2014-Sep-30 02:33N 31°28' W 119°05'2 1.5
2014-Sep-30 01:32N 31°29' W 119°06'2 2.2
2014-Sep-30 00:33N 31°31' W 119°08'3 2.6
2014-Sep-29 23:33N 31°32' W 119°10'5 4.5
2014-Sep-29 22:33N 31°36' W 119°14'5 5.5
2014-Sep-29 21:33N 31°40' W 119°18'2 1.3
2014-Sep-29 20:17N 31°41' W 119°20'6 4.7
2014-Sep-29 19:07N 31°41' W 119°13'2 2.6
2014-Sep-29 18:10N 31°43' W 119°14'1 2.1
2014-Sep-29 17:29N 31°44' W 119°15'3 3.6
2014-Sep-29 16:33N 31°46' W 119°19'3 3.1
2014-Sep-29 15:33N 31°48' W 119°22'8 7.2
2014-Sep-29 14:27N 31°55' W 119°26'6414.6
2014-Sep-29 10:04N 31°60' W 120°41'  
2014-Sep-26 01:09N 48°22' W 125°12'914.1
2014-Sep-26 00:33N 48°29' W 125°04'1313.0
2014-Sep-25 23:34N 48°31' W 124°45'1514.6
2014-Sep-25 22:33N 48°25' W 124°25'1515.2
2014-Sep-25 21:33N 48°20' W 124°03'1616.2
2014-Sep-25 20:33N 48°16' W 123°40'1313.3
2014-Sep-25 19:33N 48°09' W 123°22'1312.7
2014-Sep-25 18:33N 48°17' W 123°07'1616.2
2014-Sep-25 17:33N 48°26' W 122°47'1514.6
2014-Sep-25 16:33N 48°40' W 122°44'11 2.6
2014-Sep-25 12:13N 48°52' W 122°46'0 0.0
2014-Sep-25 09:07N 48°52' W 122°46'0 0.0
2014-Sep-25 08:31N 48°52' W 122°46'0 0.0
2014-Sep-25 06:31N 48°52' W 122°46'0 0.0
2014-Sep-25 00:04N 48°52' W 122°46'0 0.0
2014-Sep-24 21:04N 48°52' W 122°46'0 0.0
2014-Sep-24 12:26N 48°52' W 122°46'2 1.9
2014-Sep-24 11:34N 48°50' W 122°46'1111.2
2014-Sep-24 10:34N 48°39' W 122°41'6 5.6
2014-Sep-24 09:33N 48°36' W 122°34'0 0.1
2014-Sep-24 08:31N 48°36' W 122°34'0 0.0
2014-Sep-24 07:31N 48°36' W 122°34'0 0.1
2014-Sep-24 06:31N 48°36' W 122°34'0 0.0
2014-Sep-24 05:31N 48°36' W 122°34'0 0.0
2014-Sep-24 04:31N 48°36' W 122°34'0 0.0
2014-Sep-24 03:31N 48°36' W 122°34'0 0.1
2014-Sep-24 02:19N 48°36' W 122°34'0 0.0
2014-Sep-24 01:31N 48°36' W 122°34'0 0.0
2014-Sep-24 00:28N 48°36' W 122°34'0 0.0
2014-Sep-23 23:31N 48°36' W 122°34'0 0.0
2014-Sep-23 22:25N 48°36' W 122°34'0 0.1
2014-Sep-23 21:25N 48°36' W 122°34'0 0.1
2014-Sep-23 20:28N 48°36' W 122°34'0 0.1
2014-Sep-23 19:31N 48°36' W 122°34'0 0.1
2014-Sep-23 18:25N 48°36' W 122°34'0 0.1
2014-Sep-23 17:31N 48°36' W 122°34'0 0.0
2014-Sep-23 16:31N 48°36' W 122°34'0 0.0
2014-Sep-23 15:31N 48°36' W 122°34'0 0.1
2014-Sep-23 14:31N 48°36' W 122°34'0 0.1
2014-Sep-23 13:25N 48°36' W 122°34'0 0.1
2014-Sep-23 12:31N 48°36' W 122°34'0 0.0
2014-Sep-23 11:31N 48°36' W 122°34'0 0.0
2014-Sep-23 10:31N 48°36' W 122°34'0 0.0
2014-Sep-23 09:28N 48°36' W 122°34'0 0.1
2014-Sep-23 08:31N 48°36' W 122°34'0 0.2
2014-Sep-23 07:31N 48°36' W 122°34'0 0.2
2014-Sep-23 06:31N 48°36' W 122°34'0 0.0
2014-Sep-23 05:31N 48°36' W 122°34'0 0.0
2014-Sep-23 04:31N 48°36' W 122°34'0 0.2
2014-Sep-23 03:28N 48°36' W 122°34'0 0.2
2014-Sep-23 02:25N 48°36' W 122°34'0 0.1
2014-Sep-23 01:31N 48°36' W 122°34'0 0.0
2014-Sep-23 00:31N 48°36' W 122°34'0 0.0
2014-Sep-22 23:31N 48°36' W 122°34'0 0.0
2014-Sep-22 22:31N 48°36' W 122°34'0 0.0
2014-Sep-22 21:31N 48°36' W 122°34'0 0.0
2014-Sep-22 20:31N 48°36' W 122°34'0 0.1
2014-Sep-22 19:31N 48°36' W 122°34'0 0.1
2014-Sep-22 18:13N 48°36' W 122°34'0 0.3
2014-Sep-22 17:28N 48°36' W 122°34'0 0.2
2014-Sep-22 16:31N 48°36' W 122°34'0 0.1
2014-Sep-22 15:31N 48°36' W 122°34'0 0.0
2014-Sep-22 14:31N 48°36' W 122°34'0 0.0
2014-Sep-22 13:25N 48°36' W 122°34'0 0.0
2014-Sep-22 12:31N 48°36' W 122°34'0 0.0
2014-Sep-22 11:31N 48°36' W 122°34'0 0.0
2014-Sep-22 10:28N 48°36' W 122°34'0 0.0
2014-Sep-22 09:28N 48°36' W 122°34'0 0.0
2014-Sep-22 08:31N 48°36' W 122°34'0 0.0
2014-Sep-22 07:28N 48°36' W 122°34'0 0.0
2014-Sep-22 06:31N 48°36' W 122°34'0 0.1
2014-Sep-22 05:31N 48°36' W 122°34'0 0.0
2014-Sep-22 04:31N 48°36' W 122°34'0 0.0
2014-Sep-22 03:28N 48°36' W 122°34'0 0.1
2014-Sep-22 02:31N 48°36' W 122°34'0 0.2
2014-Sep-22 01:28N 48°36' W 122°34'0 0.1
2014-Sep-22 00:19N 48°36' W 122°34'0 0.1
2014-Sep-21 23:31N 48°36' W 122°34'0 0.0
2014-Sep-21 22:25N 48°36' W 122°34'0 0.0
2014-Sep-21 21:31N 48°36' W 122°34'0 0.1
2014-Sep-21 20:25N 48°36' W 122°34'0 0.1
2014-Sep-21 19:31N 48°36' W 122°34'0 0.1
2014-Sep-21 18:31N 48°36' W 122°34'0 0.1
2014-Sep-21 17:31N 48°36' W 122°34'0 0.0
2014-Sep-21 16:31N 48°36' W 122°34'0 0.0
2014-Sep-21 15:31N 48°36' W 122°34'0 0.0
2014-Sep-21 14:31N 48°36' W 122°34'0 0.0
2014-Sep-21 13:31N 48°36' W 122°34'0 0.0
2014-Sep-21 12:31N 48°36' W 122°34'0 0.0
2014-Sep-21 11:31N 48°36' W 122°34'0 0.1
2014-Sep-21 10:31N 48°36' W 122°34'0 0.1
2014-Sep-21 09:31N 48°36' W 122°34'0 0.0
2014-Sep-21 08:31N 48°36' W 122°34'0 0.1
2014-Sep-21 07:31N 48°36' W 122°34'0 0.0
2014-Sep-21 06:31N 48°36' W 122°34'  

Dump ship's entire track history